Time;durP1;ratioP1;P1;durP2;ratioP2;P2;SDS_P1;SDS_P2;PMS_P1;PMS_P2;Temp;Humidity;BMP_temperature;BMP_pressure;BME280_temperature;BME280_humidity;BME280_pressure;Samples;Min_cycle;Max_cycle;Signal;HPM_P1;HPM_P2
2021/04/20 00:02:22;;;;;;;10.80;6.90;;;8.30;99.90;;;;;;5072256;27;20505;-68
2021/04/20 00:04:48;;;;;;;8.20;6.03;;;8.10;99.90;;;;;;5106533;27;20457;-66
2021/04/20 00:07:15;;;;;;;12.13;7.50;;;8.10;99.90;;;;;;5096164;27;20447;-68
2021/04/20 00:09:43;;;;;;;18.67;10.97;;;8.20;99.90;;;;;;5093894;27;20432;-67
2021/04/20 00:12:10;;;;;;;16.30;7.00;;;8.20;99.90;;;;;;5090280;27;20455;-68
2021/04/20 00:14:38;;;;;;;13.53;8.13;;;8.10;99.90;;;;;;5089248;27;21003;-66
2021/04/20 00:17:06;;;;;;;9.50;7.80;;;8.10;99.90;;;;;;5094757;27;20504;-67
2021/04/20 00:19:32;;;;;;;12.20;6.67;;;8.20;99.90;;;;;;5087872;27;20461;-68
2021/04/20 00:21:59;;;;;;;12.70;8.60;;;8.20;99.90;;;;;;5067402;28;20566;-68
2021/04/20 00:24:26;;;;;;;13.10;7.03;;;8.30;99.90;;;;;;5082377;28;20556;-68
2021/04/20 00:26:53;;;;;;;11.30;7.73;;;8.30;99.90;;;;;;5083460;28;20483;-69
2021/04/20 00:29:19;;;;;;;12.00;6.80;;;8.30;99.90;;;;;;5058143;28;20477;-66
2021/04/20 00:31:47;;;;;;;15.23;7.57;;;8.20;99.90;;;;;;5070907;27;20631;-66
2021/04/20 00:34:13;;;;;;;8.80;6.97;;;8.10;99.90;;;;;;5090452;27;20531;-66
2021/04/20 00:36:40;;;;;;;13.77;7.23;;;8.10;99.90;;;;;;5089026;27;20552;-68
2021/04/20 00:39:07;;;;;;;12.77;7.70;;;8.10;99.90;;;;;;5090210;28;20426;-65
2021/04/20 00:41:34;;;;;;;15.73;6.73;;;8.00;99.90;;;;;;5056481;28;21143;-67
2021/04/20 00:44:00;;;;;;;9.47;5.60;;;7.90;99.90;;;;;;5076415;28;20801;-68
2021/04/20 00:46:28;;;;;;;16.67;8.30;;;8.00;99.90;;;;;;5074670;28;20447;-68
2021/04/20 00:48:55;;;;;;;14.53;8.53;;;7.90;99.90;;;;;;5097060;27;20431;-68
2021/04/20 00:51:22;;;;;;;15.93;8.03;;;7.90;99.90;;;;;;5077027;28;20451;-68
2021/04/20 00:53:48;;;;;;;14.57;6.80;;;7.90;99.90;;;;;;5108729;27;20460;-67
2021/04/20 00:56:18;;;;;;;9.87;5.70;;;7.90;99.90;;;;;;5094551;27;20558;-68
2021/04/20 00:58:44;;;;;;;11.70;6.77;;;7.80;99.90;;;;;;5074299;28;20436;-67
2021/04/20 01:01:12;;;;;;;13.23;7.33;;;7.80;99.90;;;;;;5090714;27;20511;-67
2021/04/20 01:03:39;;;;;;;9.13;5.63;;;7.80;99.90;;;;;;5095501;27;20432;-69
2021/04/20 01:06:07;;;;;;;13.97;9.90;;;7.70;99.90;;;;;;5085919;27;20490;-66
2021/04/20 01:08:35;;;;;;;13.33;8.60;;;7.60;99.90;;;;;;5088198;27;20514;-66
2021/04/20 01:11:02;;;;;;;13.97;6.50;;;7.60;99.90;;;;;;5089911;27;20427;-66
2021/04/20 01:13:32;;;;;;;12.10;7.60;;;7.60;99.90;;;;;;5070262;28;20501;-65
2021/04/20 01:15:59;;;;;;;14.50;6.33;;;7.50;99.90;;;;;;5087809;27;20423;-66
2021/04/20 01:18:28;;;;;;;12.23;6.67;;;7.60;99.90;;;;;;5086713;27;20963;-67
2021/04/20 01:20:57;;;;;;;7.27;5.90;;;7.60;99.90;;;;;;5086736;27;20480;-68
2021/04/20 01:23:33;;;;;;;18.03;7.57;;;7.70;99.90;;;;;;5089340;27;20454;-69
2021/04/20 01:26:00;;;;;;;14.57;7.73;;;7.20;99.90;;;;;;5086904;27;21087;-68
2021/04/20 01:28:27;;;;;;;11.07;6.90;;;7.20;99.90;;;;;;5081405;27;20859;-66
2021/04/20 01:30:54;;;;;;;11.10;5.93;;;7.20;99.90;;;;;;5086665;27;20522;-65
2021/04/20 01:33:21;;;;;;;12.10;6.90;;;7.20;99.90;;;;;;5084584;27;20481;-68
2021/04/20 01:35:48;;;;;;;15.13;7.67;;;7.30;99.90;;;;;;5071039;28;20583;-68
2021/04/20 01:38:15;;;;;;;9.40;5.70;;;7.30;99.90;;;;;;5096840;27;20435;-67
2021/04/20 01:40:42;;;;;;;11.20;6.30;;;7.40;99.90;;;;;;5072356;28;20453;-66
2021/04/20 01:43:12;;;;;;;12.00;7.43;;;7.30;99.90;;;;;;5087673;27;20470;-65
2021/04/20 01:45:40;;;;;;;11.13;6.57;;;7.30;99.90;;;;;;5087758;28;20590;-68
2021/04/20 01:48:08;;;;;;;12.43;6.00;;;7.20;99.90;;;;;;5084968;27;20444;-66
2021/04/20 01:50:35;;;;;;;13.20;7.20;;;7.10;99.90;;;;;;5088051;27;20439;-67
2021/04/20 01:53:01;;;;;;;16.40;7.20;;;7.20;99.90;;;;;;5068027;27;20484;-68
2021/04/20 01:55:28;;;;;;;10.37;6.47;;;7.20;99.90;;;;;;5089418;27;20535;-67
2021/04/20 01:57:56;;;;;;;15.67;7.87;;;7.10;99.90;;;;;;5086612;28;20427;-68
2021/04/20 02:00:25;;;;;;;14.90;6.57;;;7.10;99.90;;;;;;5086361;28;20833;-65
2021/04/20 02:02:52;;;;;;;12.77;8.27;;;7.10;99.90;;;;;;5084095;27;20467;-68
2021/04/20 02:05:20;;;;;;;14.57;7.37;;;7.20;99.90;;;;;;5087542;27;20510;-65
2021/04/20 02:07:47;;;;;;;12.00;7.10;;;7.30;99.90;;;;;;5088323;27;21014;-66
2021/04/20 02:10:14;;;;;;;14.20;7.33;;;7.40;99.90;;;;;;5091371;27;20551;-66
2021/04/20 02:12:42;;;;;;;10.20;6.43;;;7.30;99.90;;;;;;5086807;27;20486;-63
2021/04/20 02:15:11;;;;;;;10.17;6.20;;;7.20;99.90;;;;;;5086145;27;20949;-67
2021/04/20 02:17:41;;;;;;;10.67;7.10;;;7.10;99.90;;;;;;5084372;27;20461;-68
2021/04/20 02:20:09;;;;;;;10.20;6.00;;;7.20;99.90;;;;;;5096670;27;20464;-66
2021/04/20 02:22:36;;;;;;;10.43;6.73;;;7.20;99.90;;;;;;5085276;27;20463;-67
2021/04/20 02:25:06;;;;;;;8.90;6.30;;;7.30;99.90;;;;;;5088360;27;20451;-67
2021/04/20 02:27:34;;;;;;;12.97;6.27;;;7.30;99.90;;;;;;5086424;27;20535;-68
2021/04/20 02:30:01;;;;;;;10.00;6.30;;;7.40;99.90;;;;;;5092716;27;20431;-65
2021/04/20 02:32:28;;;;;;;15.47;7.30;;;7.40;99.90;;;;;;5089236;27;20522;-68
2021/04/20 02:34:59;;;;;;;10.97;7.30;;;7.50;99.90;;;;;;5087332;27;20465;-69
2021/04/20 02:37:26;;;;;;;16.97;7.67;;;7.60;99.90;;;;;;5094142;27;20891;-67
2021/04/20 02:39:53;;;;;;;9.50;6.07;;;7.30;99.90;;;;;;5076077;27;20516;-68
2021/04/20 02:42:20;;;;;;;11.93;8.53;;;7.30;99.90;;;;;;5092143;27;20508;-67
2021/04/20 02:44:46;;;;;;;8.73;4.47;;;7.40;99.90;;;;;;5090170;27;20435;-68
2021/04/20 02:47:13;;;;;;;10.23;5.97;;;7.40;99.90;;;;;;5086998;27;20448;-67
2021/04/20 02:49:40;;;;;;;8.80;5.37;;;7.50;99.90;;;;;;5099382;27;20427;-67
2021/04/20 02:52:09;;;;;;;10.20;5.77;;;7.30;99.90;;;;;;5070856;28;20542;-67
2021/04/20 02:54:36;;;;;;;12.17;6.30;;;7.10;99.90;;;;;;5095620;27;20471;-67
2021/04/20 02:57:03;;;;;;;13.73;6.07;;;7.00;99.90;;;;;;5071918;28;20519;-66
2021/04/20 02:59:31;;;;;;;17.40;6.23;;;7.20;99.90;;;;;;5086533;28;20505;-68
2021/04/20 03:02:02;;;;;;;12.37;7.20;;;7.20;99.90;;;;;;5083912;28;20566;-67
2021/04/20 03:04:29;;;;;;;11.60;5.80;;;7.10;99.90;;;;;;5095854;28;20809;-67
2021/04/20 03:06:56;;;;;;;11.83;6.97;;;7.00;99.90;;;;;;5097947;28;20490;-67
2021/04/20 03:09:23;;;;;;;11.30;6.80;;;7.20;99.90;;;;;;5102362;27;20466;-67
2021/04/20 03:11:54;;;;;;;14.77;7.37;;;7.50;99.90;;;;;;5092118;27;20491;-67
2021/04/20 03:14:22;;;;;;;10.10;7.40;;;7.60;99.90;;;;;;5088377;28;20408;-68
2021/04/20 03:16:49;;;;;;;15.27;6.47;;;7.50;99.90;;;;;;5089749;28;20617;-67
2021/04/20 03:19:17;;;;;;;14.40;5.63;;;7.20;99.90;;;;;;5098263;28;20518;-66
2021/04/20 03:21:44;;;;;;;9.70;4.30;;;7.00;99.90;;;;;;5077250;28;20480;-67
2021/04/20 03:24:32;;;;;;;9.00;6.23;;;7.10;99.90;;;;;;5095666;28;20512;-68
2021/04/20 03:26:59;;;;;;;8.73;5.30;;;7.10;99.90;;;;;;5088710;28;20491;-66
2021/04/20 03:29:27;;;;;;;10.93;8.60;;;7.10;99.90;;;;;;5096343;28;20527;-66
2021/04/20 03:31:53;;;;;;;12.20;7.27;;;7.20;99.90;;;;;;5087755;28;20457;-67
2021/04/20 03:34:26;;;;;;;12.33;6.63;;;7.10;99.90;;;;;;5096472;28;20450;-67
2021/04/20 03:37:00;;;;;;;9.00;5.50;;;7.00;99.90;;;;;;5093502;28;20479;-67
2021/04/20 03:39:28;;;;;;;15.03;6.67;;;7.20;99.90;;;;;;5095962;28;20439;-67
2021/04/20 03:42:01;;;;;;;11.87;6.50;;;7.20;99.90;;;;;;5092734;28;21143;-66
2021/04/20 03:44:31;;;;;;;11.23;7.43;;;7.30;99.90;;;;;;5095073;28;20504;-67
2021/04/20 03:47:02;;;;;;;16.20;7.60;;;7.30;99.90;;;;;;5093413;28;20473;-66
2021/04/20 03:49:31;;;;;;;42.97;7.97;;;7.30;99.90;;;;;;5091069;28;20438;-67
2021/04/20 03:52:00;;;;;;;10.83;7.27;;;7.10;99.90;;;;;;5088052;28;20545;-67
2021/04/20 03:54:30;;;;;;;9.13;6.23;;;7.20;99.90;;;;;;5091956;28;20417;-65
2021/04/20 03:57:01;;;;;;;14.03;7.83;;;7.30;99.90;;;;;;5087269;28;20530;-67
2021/04/20 03:59:30;;;;;;;15.23;8.57;;;7.20;99.90;;;;;;5095163;28;21702;-65
2021/04/20 04:02:00;;;;;;;17.43;6.60;;;6.90;99.90;;;;;;5100490;28;20909;-69
2021/04/20 04:04:29;;;;;;;16.83;7.87;;;6.90;99.90;;;;;;5087358;28;20450;-66
2021/04/20 04:06:57;;;;;;;18.53;9.37;;;6.80;99.90;;;;;;5091325;28;20547;-66
2021/04/20 04:09:24;;;;;;;10.17;6.13;;;6.80;99.90;;;;;;5089537;28;21233;-68
2021/04/20 04:11:54;;;;;;;15.80;7.40;;;6.90;99.90;;;;;;5086739;28;20545;-66
2021/04/20 04:14:26;;;;;;;14.00;8.57;;;6.90;99.90;;;;;;5090819;28;20431;-66
2021/04/20 04:16:58;;;;;;;16.00;10.53;;;6.70;99.90;;;;;;5096343;28;20790;-66
2021/04/20 04:19:27;;;;;;;9.00;5.93;;;6.80;99.90;;;;;;5099385;28;20511;-67
2021/04/20 04:21:59;;;;;;;9.20;6.13;;;6.80;99.90;;;;;;5092420;28;20447;-66
2021/04/20 04:24:31;;;;;;;10.13;6.13;;;6.80;99.90;;;;;;5098047;28;20445;-66
2021/04/20 04:27:02;;;;;;;13.80;6.73;;;6.90;99.90;;;;;;5086382;28;20508;-65
2021/04/20 04:29:30;;;;;;;14.50;6.90;;;6.90;99.90;;;;;;5092688;28;20978;-66
2021/04/20 04:31:57;;;;;;;8.13;6.40;;;6.70;99.90;;;;;;5097121;27;20468;-66
2021/04/20 04:34:24;;;;;;;11.37;6.90;;;6.60;99.90;;;;;;5100124;27;20952;-65
2021/04/20 04:36:51;;;;;;;11.10;8.40;;;6.60;99.90;;;;;;5100786;28;20558;-66
2021/04/20 04:39:18;;;;;;;11.97;6.53;;;6.60;99.90;;;;;;5097631;27;20535;-68
2021/04/20 04:41:48;;;;;;;14.13;6.20;;;6.60;99.90;;;;;;5092725;27;20460;-67
2021/04/20 04:44:14;;;;;;;10.70;6.23;;;6.70;99.90;;;;;;5092722;27;20523;-66
2021/04/20 04:46:42;;;;;;;18.30;6.80;;;6.80;99.90;;;;;;5093422;27;20580;-66
2021/04/20 04:49:10;;;;;;;15.17;7.30;;;6.80;99.90;;;;;;5099318;27;20461;-67
2021/04/20 04:51:38;;;;;;;20.87;7.67;;;6.90;99.90;;;;;;5089833;27;20476;-66
2021/04/20 04:54:06;;;;;;;13.13;7.40;;;6.80;99.90;;;;;;5097148;27;20455;-68
2021/04/20 04:56:34;;;;;;;10.77;7.53;;;6.50;99.90;;;;;;5099316;27;21469;-67
2021/04/20 04:59:02;;;;;;;19.67;8.50;;;6.50;99.90;;;;;;5090641;27;20484;-67
2021/04/20 05:01:29;;;;;;;9.23;7.20;;;6.60;99.90;;;;;;5099181;27;20439;-68
2021/04/20 05:04:06;;;;;;;16.80;7.70;;;6.60;99.90;;;;;;5098758;27;21546;-69
2021/04/20 05:06:35;;;;;;;10.57;5.90;;;6.60;99.90;;;;;;5090442;27;21041;-67
2021/04/20 05:09:01;;;;;;;19.30;6.60;;;6.70;99.90;;;;;;5090823;27;20493;-67
2021/04/20 05:11:28;;;;;;;23.20;8.50;;;6.50;99.90;;;;;;5100548;27;20488;-68
2021/04/20 05:13:55;;;;;;;18.00;7.20;;;6.70;99.90;;;;;;5091973;27;20784;-67
2021/04/20 05:16:23;;;;;;;13.70;7.30;;;6.70;99.90;;;;;;5099977;27;20431;-68
2021/04/20 05:18:50;;;;;;;16.43;8.67;;;6.70;99.90;;;;;;5102801;27;20514;-68
2021/04/20 05:21:18;;;;;;;16.40;8.93;;;6.80;99.90;;;;;;5079835;28;20928;-66
2021/04/20 05:23:45;;;;;;;20.40;9.30;;;6.80;99.90;;;;;;5077371;28;20432;-67
2021/04/20 05:26:11;;;;;;;17.60;8.27;;;6.90;99.90;;;;;;5101926;27;20449;-66
2021/04/20 05:28:38;;;;;;;22.17;9.13;;;7.00;99.90;;;;;;5098604;27;20842;-67
2021/04/20 05:31:05;;;;;;;21.00;8.43;;;7.00;99.90;;;;;;5103795;27;20457;-68
2021/04/20 05:33:31;;;;;;;18.90;9.23;;;7.10;99.90;;;;;;5083638;28;20522;-67
2021/04/20 05:36:06;;;;;;;22.80;7.67;;;7.20;99.90;;;;;;5095773;27;20527;-67
2021/04/20 05:38:34;;;;;;;14.20;7.37;;;7.50;99.90;;;;;;5097834;27;20555;-66
2021/04/20 05:41:02;;;;;;;18.87;9.70;;;7.60;99.90;;;;;;5098620;27;20498;-67
2021/04/20 05:43:28;;;;;;;18.60;8.97;;;7.70;99.90;;;;;;5078617;28;20968;-68
2021/04/20 05:45:56;;;;;;;21.13;8.23;;;8.10;99.90;;;;;;5093732;27;20503;-66
2021/04/20 05:48:26;;;;;;;25.57;9.00;;;8.50;99.90;;;;;;5099853;27;20448;-68
2021/04/20 05:50:53;;;;;;;18.13;7.30;;;8.90;99.90;;;;;;5102495;27;20474;-67
2021/04/20 05:53:20;;;;;;;13.93;6.67;;;9.30;99.90;;;;;;5096478;27;20483;-68
2021/04/20 05:55:48;;;;;;;12.67;7.50;;;9.70;99.90;;;;;;5100023;27;20959;-66
2021/04/20 05:58:14;;;;;;;16.70;7.73;;;10.10;99.90;;;;;;5082983;28;20427;-69
2021/04/20 06:00:42;;;;;;;10.67;6.47;;;10.50;99.90;;;;;;5100146;27;20472;-67
2021/04/20 06:03:09;;;;;;;9.80;7.07;;;10.90;99.90;;;;;;5093938;27;20883;-66
2021/04/20 06:05:36;;;;;;;11.50;6.90;;;11.00;99.90;;;;;;5099379;27;20431;-67
2021/04/20 06:08:06;;;;;;;13.07;9.53;;;11.40;99.90;;;;;;5098771;27;20492;-68
2021/04/20 06:10:33;;;;;;;12.23;7.10;;;11.20;99.90;;;;;;5096174;27;20557;-67
2021/04/20 06:13:00;;;;;;;13.73;6.93;;;11.40;99.90;;;;;;5096434;27;20505;-66
2021/04/20 06:15:27;;;;;;;12.20;7.03;;;11.90;99.90;;;;;;5097779;27;20489;-67
2021/04/20 06:17:55;;;;;;;11.63;7.33;;;12.00;99.90;;;;;;5095720;27;20554;-68
2021/04/20 06:20:24;;;;;;;10.40;6.90;;;12.40;99.90;;;;;;5099403;27;20480;-68
2021/04/20 06:22:53;;;;;;;11.83;7.40;;;12.90;99.90;;;;;;5104158;27;20473;-68
2021/04/20 06:25:21;;;;;;;19.90;7.80;;;13.30;99.90;;;;;;5086783;28;20468;-67
2021/04/20 06:27:48;;;;;;;13.73;7.60;;;13.60;99.90;;;;;;5098322;27;20565;-67
2021/04/20 06:30:18;;;;;;;11.13;6.50;;;13.50;99.90;;;;;;5097847;27;20499;-67
2021/04/20 06:32:46;;;;;;;10.97;7.50;;;13.40;99.90;;;;;;5102431;27;21083;-69
2021/04/20 06:35:14;;;;;;;27.23;8.70;;;13.20;99.90;;;;;;5098647;27;20424;-67
2021/04/20 06:37:44;;;;;;;15.87;8.17;;;13.30;99.90;;;;;;5094610;27;20821;-67
2021/04/20 06:40:14;;;;;;;14.30;8.20;;;13.60;99.90;;;;;;5101733;27;20534;-67
2021/04/20 06:42:46;;;;;;;13.73;7.87;;;13.70;99.90;;;;;;5098399;27;20458;-68
2021/04/20 06:45:19;;;;;;;9.30;6.27;;;13.70;99.90;;;;;;5099861;27;20457;-67
2021/04/20 06:47:53;;;;;;;8.00;5.00;;;13.60;99.90;;;;;;5087157;28;20484;-68
2021/04/20 06:50:21;;;;;;;9.77;6.20;;;14.00;99.90;;;;;;5101619;27;20452;-67
2021/04/20 06:52:51;;;;;;;19.20;7.00;;;14.40;99.90;;;;;;5093918;27;20480;-68
2021/04/20 06:55:24;;;;;;;12.97;7.47;;;15.00;99.90;;;;;;5100240;27;20457;-68
2021/04/20 06:58:05;;;;;;;9.93;7.10;;;15.30;99.90;;;;;;5095598;27;20456;-67
2021/04/20 07:00:41;;;;;;;13.00;7.50;;;15.90;99.90;;;;;;5097013;28;20456;-67
2021/04/20 07:03:23;;;;;;;9.10;6.67;;;15.90;99.90;;;;;;5103173;27;21241;-66
2021/04/20 07:05:57;;;;;;;20.23;7.70;;;16.50;99.90;;;;;;5094086;28;20487;-67
2021/04/20 07:08:31;;;;;;;20.10;9.17;;;16.80;99.90;;;;;;5100218;28;20511;-67
2021/04/20 07:11:01;;;;;;;9.87;8.23;;;17.30;99.90;;;;;;5106661;28;20525;-67
2021/04/20 07:13:33;;;;;;;13.60;7.63;;;17.70;99.90;;;;;;5108093;27;20480;-67
2021/04/20 07:16:19;;;;;;;15.87;8.93;;;18.10;99.90;;;;;;5102088;28;20445;-65
2021/04/20 07:19:02;;;;;;;20.97;9.57;;;18.10;99.90;;;;;;5099361;28;21025;-66
2021/04/20 07:22:00;;;;;;;14.10;8.20;;;18.40;99.90;;;;;;5101173;28;20513;-66
2021/04/20 07:24:35;;;;;;;14.97;8.80;;;18.90;99.90;;;;;;5056969;28;20452;-64
2021/04/20 07:27:26;;;;;;;14.63;8.13;;;19.40;99.90;;;;;;5092898;28;20472;-65
2021/04/20 07:30:09;;;;;;;13.37;9.17;;;18.90;99.90;;;;;;5091678;28;20823;-66
2021/04/20 07:32:54;;;;;;;17.23;8.90;;;17.90;99.90;;;;;;5102735;28;20813;-65
2021/04/20 07:35:24;;;;;;;16.00;9.90;;;18.90;99.90;;;;;;5100500;28;20544;-67
2021/04/20 07:37:55;;;;;;;16.53;8.77;;;19.90;99.90;;;;;;5097086;28;20481;-66
2021/04/20 07:40:32;;;;;;;16.50;9.17;;;20.00;99.90;;;;;;5103340;28;20988;-67
2021/04/20 07:43:12;;;;;;;14.23;9.30;;;20.00;99.90;;;;;;5095028;28;20516;-68
2021/04/20 07:45:45;;;;;;;14.93;9.90;;;20.20;99.90;;;;;;5095731;28;20466;-67
2021/04/20 07:48:27;;;;;;;17.50;9.87;;;20.80;98.50;;;;;;5100147;28;20604;-67
2021/04/20 07:50:59;;;;;;;16.30;9.20;;;20.70;98.00;;;;;;5094151;28;20473;-65
2021/04/20 07:53:36;;;;;;;15.90;10.00;;;21.10;97.60;;;;;;5098122;28;20566;-67
2021/04/20 07:56:14;;;;;;;16.47;10.70;;;21.10;96.30;;;;;;5090566;28;20505;-68
2021/04/20 07:58:47;;;;;;;15.97;9.70;;;21.80;95.40;;;;;;5089711;28;20456;-68
2021/04/20 08:01:33;;;;;;;11.70;8.80;;;21.40;95.60;;;;;;5094887;28;20445;-65
2021/04/20 08:04:12;;;;;;;14.37;9.37;;;21.70;94.10;;;;;;5094994;28;20444;-66
2021/04/20 08:06:41;;;;;;;11.30;7.80;;;21.90;93.10;;;;;;5101293;27;21464;-67
2021/04/20 08:09:13;;;;;;;18.40;10.90;;;22.70;91.90;;;;;;5101211;27;20930;-67
2021/04/20 08:11:44;;;;;;;11.50;9.37;;;23.00;90.00;;;;;;5095400;27;20963;-67
2021/04/20 08:14:19;;;;;;;13.17;8.80;;;23.10;91.10;;;;;;5101383;27;20445;-67
2021/04/20 08:16:50;;;;;;;14.00;8.93;;;23.10;89.10;;;;;;5102783;27;20456;-67
2021/04/20 08:19:23;;;;;;;13.50;8.83;;;23.30;86.90;;;;;;5110509;27;20495;-67
2021/04/20 08:21:50;;;;;;;11.90;8.37;;;22.70;80.60;;;;;;5103105;27;20576;-67
2021/04/20 08:24:22;;;;;;;9.60;8.40;;;21.70;81.30;;;;;;5106610;27;20837;-68
2021/04/20 08:26:54;;;;;;;16.67;11.70;;;22.30;82.60;;;;;;5107852;27;20490;-69
2021/04/20 08:29:23;;;;;;;12.73;8.60;;;22.40;82.70;;;;;;5090904;27;20449;-66
2021/04/20 08:31:53;;;;;;;14.63;10.30;;;22.10;80.40;;;;;;5099298;27;20484;-67
2021/04/20 08:34:34;;;;;;;12.40;9.07;;;22.70;83.10;;;;;;5101424;27;20799;-66
2021/04/20 08:37:12;;;;;;;17.53;8.70;;;23.40;75.50;;;;;;5107515;27;20453;-66
2021/04/20 08:39:47;;;;;;;12.50;10.80;;;24.10;74.10;;;;;;5105471;27;20529;-66
2021/04/20 08:42:20;;;;;;;12.37;8.30;;;23.50;71.30;;;;;;5103090;27;20623;-66
2021/04/20 08:44:56;;;;;;;12.23;8.27;;;23.70;72.60;;;;;;5101999;27;20931;-66
2021/04/20 08:47:29;;;;;;;12.20;9.80;;;23.90;70.70;;;;;;5106427;27;20468;-67
2021/04/20 08:50:01;;;;;;;12.17;9.30;;;23.80;69.00;;;;;;5096935;27;20454;-67
2021/04/20 08:52:49;;;;;;;13.77;9.10;;;24.00;70.40;;;;;;5094850;28;21037;-68
2021/04/20 08:55:28;;;;;;;10.73;8.50;;;24.00;70.30;;;;;;5091066;27;20459;-67
2021/04/20 08:58:23;;;;;;;11.40;8.80;;;23.60;68.40;;;;;;5101477;27;21539;-67
2021/04/20 09:01:02;;;;;;;16.10;9.70;;;24.50;70.20;;;;;;5095807;27;20464;-67
2021/04/20 09:03:39;;;;;;;13.90;10.03;;;25.00;67.40;;;;;;5093948;27;21003;-68
2021/04/20 09:06:10;;;;;;;12.07;9.33;;;25.00;67.10;;;;;;5097122;27;20468;-66
2021/04/20 09:08:38;;;;;;;17.20;10.90;;;25.00;65.60;;;;;;5097091;27;20468;-67
2021/04/20 09:11:10;;;;;;;14.47;10.47;;;24.50;67.50;;;;;;5097784;27;20849;-67
2021/04/20 09:13:47;;;;;;;17.03;10.53;;;24.80;67.60;;;;;;5097531;27;20609;-67
2021/04/20 09:16:16;;;;;;;13.60;10.40;;;25.40;65.70;;;;;;5097519;27;20452;-66
2021/04/20 09:18:44;;;;;;;13.10;10.10;;;26.10;66.00;;;;;;5099522;27;21365;-66
2021/04/20 09:21:17;;;;;;;15.47;11.20;;;25.90;63.50;;;;;;5102160;27;20449;-68
2021/04/20 09:24:00;;;;;;;16.20;11.23;;;25.80;61.60;;;;;;5094196;27;20448;-66
2021/04/20 09:26:38;;;;;;;11.57;9.03;;;25.50;63.40;;;;;;5091046;27;20456;-67
2021/04/20 09:29:12;;;;;;;13.50;10.73;;;25.20;63.30;;;;;;5095536;27;20469;-67
2021/04/20 09:31:45;;;;;;;15.80;9.30;;;25.30;63.50;;;;;;5098676;27;20494;-69
2021/04/20 09:34:13;;;;;;;17.00;11.40;;;25.20;65.60;;;;;;5101492;27;20480;-67
2021/04/20 09:36:41;;;;;;;19.70;10.40;;;26.00;62.10;;;;;;5096895;27;20491;-66
2021/04/20 09:39:09;;;;;;;14.83;10.67;;;26.80;59.50;;;;;;5095235;27;20467;-67
2021/04/20 09:41:40;;;;;;;15.43;10.90;;;26.50;58.10;;;;;;5097307;27;20488;-67
2021/04/20 09:44:25;;;;;;;12.13;9.90;;;26.10;60.10;;;;;;5101215;27;20900;-67
2021/04/20 09:47:24;;;;;;;15.47;10.30;;;25.80;58.30;;;;;;5098285;27;20481;-66
2021/04/20 09:50:00;;;;;;;11.47;7.90;;;26.20;56.90;;;;;;5097198;27;20452;-66
2021/04/20 09:52:40;;;;;;;11.33;10.00;;;25.60;58.20;;;;;;5096586;27;20489;-66
2021/04/20 09:55:11;;;;;;;11.83;10.10;;;25.60;58.80;;;;;;5099265;27;20833;-66
2021/04/20 09:57:42;;;;;;;14.93;9.30;;;26.40;59.10;;;;;;5097563;27;20454;-66
2021/04/20 10:00:11;;;;;;;13.80;10.47;;;26.40;58.80;;;;;;5098468;27;20510;-66
2021/04/20 10:02:46;;;;;;;18.33;10.20;;;26.20;56.40;;;;;;5092782;27;20480;-65
2021/04/20 10:05:17;;;;;;;15.13;10.50;;;25.90;58.50;;;;;;5093903;27;20902;-66
2021/04/20 10:08:19;;;;;;;18.13;11.50;;;25.90;58.60;;;;;;5103163;27;20496;-66
2021/04/20 10:10:54;;;;;;;13.70;9.20;;;26.70;57.50;;;;;;5100796;27;20452;-67
2021/04/20 10:13:40;;;;;;;11.63;9.17;;;26.80;55.60;;;;;;5099981;27;20481;-66
2021/04/20 10:16:14;;;;;;;21.37;9.80;;;26.20;55.90;;;;;;5091222;27;20564;-67
2021/04/20 10:18:52;;;;;;;11.77;9.07;;;26.40;55.90;;;;;;5093365;27;20576;-67
2021/04/20 10:21:28;;;;;;;18.57;12.03;;;26.90;56.20;;;;;;5094564;27;20535;-66
2021/04/20 10:24:07;;;;;;;14.60;11.60;;;26.40;56.80;;;;;;5088233;27;21740;-67
2021/04/20 10:26:43;;;;;;;12.27;10.00;;;27.10;55.30;;;;;;5100647;27;21178;-67
2021/04/20 10:29:17;;;;;;;16.27;10.70;;;28.30;55.30;;;;;;5098505;27;20441;-66
2021/04/20 10:31:52;;;;;;;11.47;10.27;;;28.30;55.80;;;;;;5091823;28;21001;-68
2021/04/20 10:34:20;;;;;;;12.63;10.70;;;28.70;53.40;;;;;;5101088;27;20649;-67
2021/04/20 10:36:52;;;;;;;15.67;11.63;;;28.80;51.80;;;;;;5096855;27;20453;-66
2021/04/20 10:39:22;;;;;;;19.97;11.67;;;29.10;51.60;;;;;;5096148;27;20453;-68
2021/04/20 10:41:51;;;;;;;13.10;10.53;;;29.20;52.10;;;;;;5097366;27;20486;-67
2021/04/20 10:44:20;;;;;;;13.60;10.53;;;29.90;50.20;;;;;;5100403;27;20456;-68
2021/04/20 10:46:52;;;;;;;13.53;12.10;;;30.20;49.90;;;;;;5100845;27;20464;-67
2021/04/20 10:49:21;;;;;;;15.20;10.10;;;30.50;50.60;;;;;;5095448;28;20461;-68
2021/04/20 10:51:53;;;;;;;23.33;10.50;;;30.00;50.40;;;;;;5096956;27;20480;-65
2021/04/20 10:54:21;;;;;;;16.93;10.63;;;29.10;50.60;;;;;;5096233;27;20453;-66
2021/04/20 10:56:51;;;;;;;14.07;9.90;;;28.10;51.70;;;;;;5096857;27;20494;-66
2021/04/20 10:59:25;;;;;;;12.70;9.57;;;28.30;51.60;;;;;;5104401;28;20461;-66
2021/04/20 11:01:53;;;;;;;13.80;9.70;;;27.50;53.20;;;;;;5102117;28;20998;-67
2021/04/20 11:04:22;;;;;;;12.60;9.50;;;27.90;51.60;;;;;;5102915;28;20460;-67
2021/04/20 11:07:21;;;;;;;13.47;9.47;;;27.80;53.20;;;;;;5085313;28;20854;-68
2021/04/20 11:09:55;;;;;;;13.13;9.43;;;26.60;51.90;;;;;;5094577;27;20456;-68
2021/04/20 11:12:24;;;;;;;11.13;9.20;;;25.60;52.80;;;;;;5096739;28;20477;-69
2021/04/20 11:14:52;;;;;;;14.63;10.03;;;25.40;54.90;;;;;;5102853;28;20473;-66
2021/04/20 11:17:30;;;;;;;13.37;9.80;;;26.10;54.80;;;;;;5098935;28;20449;-68
2021/04/20 11:20:11;;;;;;;16.47;11.20;;;26.70;55.60;;;;;;5094427;28;20841;-67
2021/04/20 11:22:42;;;;;;;10.43;9.07;;;28.40;52.60;;;;;;5098080;28;20501;-68
2021/04/20 11:25:25;;;;;;;9.30;7.70;;;28.70;51.40;;;;;;5095916;28;20987;-67
2021/04/20 11:27:57;;;;;;;9.40;6.43;;;28.80;50.60;;;;;;5093894;28;21007;-67
2021/04/20 11:30:30;;;;;;;12.13;7.60;;;28.00;49.50;;;;;;5096117;28;20452;-68
2021/04/20 11:32:59;;;;;;;9.63;7.50;;;28.80;50.50;;;;;;5091665;28;21016;-67
2021/04/20 11:35:27;;;;;;;8.73;6.00;;;28.80;49.80;;;;;;5093004;28;20457;-68
2021/04/20 11:38:00;;;;;;;8.83;7.03;;;27.90;49.40;;;;;;5088014;27;20835;-66
2021/04/20 11:40:30;;;;;;;8.43;7.03;;;27.90;50.20;;;;;;5096809;27;20460;-67
2021/04/20 11:43:01;;;;;;;9.30;8.40;;;29.20;50.60;;;;;;5095457;27;20473;-68
2021/04/20 11:45:29;;;;;;;12.03;7.50;;;29.80;48.40;;;;;;5100375;27;20464;-68
2021/04/20 11:48:03;;;;;;;8.87;7.93;;;30.60;49.00;;;;;;5100041;27;20616;-68
2021/04/20 11:50:33;;;;;;;9.13;7.50;;;30.80;47.20;;;;;;5099778;28;20449;-67
2021/04/20 11:53:02;;;;;;;9.63;7.03;;;30.60;46.60;;;;;;5098705;27;21148;-66
2021/04/20 11:55:35;;;;;;;8.23;7.37;;;30.40;46.80;;;;;;5095590;27;20824;-68
2021/04/20 11:58:09;;;;;;;16.93;8.13;;;29.50;46.40;;;;;;5098981;27;20560;-69
2021/04/20 12:00:38;;;;;;;11.97;8.20;;;28.50;47.70;;;;;;5098319;27;20459;-68
2021/04/20 12:03:17;;;;;;;10.10;7.80;;;28.40;47.40;;;;;;5097877;27;21000;-67
2021/04/20 12:05:46;;;;;;;12.50;7.93;;;26.70;48.70;;;;;;5093241;27;20488;-68
2021/04/20 12:08:22;;;;;;;10.47;8.33;;;25.90;49.90;;;;;;5098912;27;20477;-67
2021/04/20 12:10:52;;;;;;;9.87;8.83;;;25.10;52.10;;;;;;5096792;27;20586;-67
2021/04/20 12:13:24;;;;;;;12.40;9.77;;;23.50;52.10;;;;;;5079130;27;20564;-67
2021/04/20 12:16:00;;;;;;;13.60;8.13;;;23.00;54.00;;;;;;5089603;28;20577;-66
2021/04/20 12:18:30;;;;;;;15.23;8.40;;;23.10;53.00;;;;;;5090149;27;20865;-67
2021/04/20 12:21:00;;;;;;;11.20;8.10;;;23.10;52.30;;;;;;5095157;27;20461;-67
2021/04/20 12:23:29;;;;;;;9.20;6.60;;;23.20;53.70;;;;;;5095289;28;20890;-68
2021/04/20 12:25:57;;;;;;;12.40;7.87;;;25.10;53.00;;;;;;5093368;27;20452;-67
2021/04/20 12:28:26;;;;;;;8.47;6.80;;;26.90;51.30;;;;;;5091453;27;20621;-67
2021/04/20 12:30:53;;;;;;;12.10;8.30;;;27.80;48.90;;;;;;5088408;27;20524;-68
2021/04/20 12:33:21;;;;;;;8.10;7.30;;;27.60;50.10;;;;;;5091923;27;20571;-69
2021/04/20 12:35:48;;;;;;;13.40;8.73;;;28.10;49.50;;;;;;5089837;27;20856;-68
2021/04/20 12:38:21;;;;;;;10.47;8.00;;;27.90;48.60;;;;;;5090111;27;20468;-68
2021/04/20 12:40:56;;;;;;;9.77;8.20;;;28.50;47.00;;;;;;5092635;27;20576;-67
2021/04/20 12:43:26;;;;;;;10.83;9.73;;;28.50;46.90;;;;;;5087688;28;20555;-69
2021/04/20 12:46:03;;;;;;;11.47;10.20;;;28.40;47.20;;;;;;5096909;27;20465;-67
2021/04/20 12:48:31;;;;;;;9.13;8.03;;;29.50;47.10;;;;;;5097715;27;20480;-67
2021/04/20 12:50:59;;;;;;;14.70;9.00;;;30.40;45.10;;;;;;5102478;27;20976;-66
2021/04/20 12:53:28;;;;;;;10.80;8.43;;;30.10;44.20;;;;;;5100717;27;20515;-67
2021/04/20 12:55:55;;;;;;;11.70;9.90;;;28.60;46.10;;;;;;5101357;27;20493;-67
2021/04/20 12:58:25;;;;;;;10.37;9.27;;;28.90;46.40;;;;;;5099080;27;20454;-67
2021/04/20 13:01:00;;;;;;;12.73;10.47;;;30.20;47.10;;;;;;5102587;27;20443;-67